Nearby METAR Reports

 

KIMT - Iron Mountain, Michigan, USA
Distance from station: 0 29mi, 47km
Updated: Sun, 17-Dec-2017 6:54am CST
Overcast
Overcast
 Wind from calm
Wind: Calm
Temperature: 18°F , -8°C
Dew Point: 12°F , -11°C
Humidity: 79%
Barometer: 30.14 inHg , 1020.7 hPa
Clouds: Overcast
Visibility: 10 miles , 16 km
Cloud details: Overcast 800 ft
2017/12/17 12:54 KIMT 171254Z AUTO 00000KT 10SM OVC008 M08/M11 A3014 RMK AO2 SLP230 T10781106
KMNM - Menominee, Michigan, USA
Distance from station: SE 31mi, 51km
Updated: Sun, 17-Dec-2017 7:17am CST
Overcast
Overcast
 Wind from SE
Wind: SE 12 mph , 19 km/h
Temperature: 28°F , -2°C
Wind Chill: 18°F , -8°C
Dew Point: 25°F , -4°C
Humidity: 86%
Barometer: 30.18 inHg , 1022 hPa
Clouds: Overcast
Visibility: 10 miles , 16 km
Cloud details: Overcast 1600 ft
2017/12/17 13:17 KMNM 171317Z AUTO 13010KT 10SM OVC016 M02/M04 A3018 RMK AO2 WSHFT 1257 FZRANO $
 
KOCQ - Oconto, Wisconsin, USA
Distance from station: SSE 38mi, 61km
Updated: Sun, 17-Dec-2017 7:35am CST
Overcast
Overcast
 Wind from N
Wind: N 3 mph , 6 km/h
Temperature: 21°F , -6°C
Dew Point: 18°F , -8°C
Humidity: 86%
Barometer: 30.17 inHg , 1021.7 hPa
Clouds: Overcast
Visibility: 10 miles , 16 km
Cloud details: Overcast 1400 ft
2017/12/17 13:35 KOCQ 171335Z AUTO 35003KT 10SM OVC014 M06/M08 A3017 RMK AO1 T10621079
KEZS - Shawano Muni, Wisconsin, USA
Distance from station: SSW 48mi, 77km
Updated: Sun, 17-Dec-2017 7:35am CST
Overcast
Overcast
 Wind from NNE
Wind: NNE 6 mph , 9 km/h
Temperature: 23°F , -5°C
Wind Chill: 16°F , -9°C
Dew Point: 19°F , -7°C
Humidity: 86%
Barometer: 30.16 inHg , 1021.3 hPa
Clouds: Overcast
Visibility: 10 miles , 16 km
Cloud details: Overcast 1100 ft
2017/12/17 13:35 KEZS 171335Z AUTO 03005KT 10SM OVC011 M05/M07 A3016 RMK AO2 T10501068
 
KAIG - Antigo/Langlade, Wisconsin, USA
Distance from station: WSW 51mi, 82km
Updated: Sun, 17-Dec-2017 7:35am CST
Overcast
Overcast
 Wind from E
Wind: E 7 mph , 11 km/h
Temperature: 21°F , -6°C
Wind Chill: 12°F , -11°C
Dew Point: 19°F , -7°C
Humidity: 93%
Barometer: 30.10 inHg , 1019.3 hPa
Clouds: Overcast
Visibility: 10 miles , 16 km
Cloud details: Overcast 600 ft
2017/12/17 13:35 KAIG 171335Z AUTO 10006KT 10SM OVC006 M06/M07 A3010 RMK AO2 T10641067
KSUE - Sturgeon Bay, Wisconsin, USA
Distance from station: SE 51mi, 82km
Updated: Sun, 17-Dec-2017 6:56am CST
Overcast
Overcast
 Wind from E
Wind: E 6 mph , 9 km/h
Temperature: 28°F , -2°C
Wind Chill: 21°F , -6°C
Dew Point: 25°F , -4°C
Humidity: 86%
Barometer: 30.18 inHg , 1022 hPa
Clouds: Overcast
Visibility: 10 miles , 16 km
Cloud details: Overcast 1400 ft
2017/12/17 12:56 KSUE 171256Z AUTO 10005KT 10SM OVC014 M02/M04 A3018 RMK AO2 SLP244 T10221044 FZRANO
 
KESC - Escanaba, Michigan, USA
Distance from station: ENE 56mi, 90km
Updated: Sun, 17-Dec-2017 6:56am CST
Overcast
Overcast
 Wind from NE
Wind: NE 3 mph , 6 km/h
Temperature: 18°F , -8°C
Dew Point: 16°F , -9°C
Humidity: 93%
Barometer: 30.20 inHg , 1022.7 hPa
Clouds: Overcast
Visibility: 10 miles , 16 km
Cloud details: Overcast 2300 ft
2017/12/17 12:56 KESC 171256Z AUTO 04003KT 10SM OVC023 M08/M09 A3020 RMK AO2 SLP254 T10781094 FZRANO
KCLI - Clintonville, Wisconsin, USA
Distance from station: SSW 62mi, 99km
Updated: Sun, 17-Dec-2017 5:43am CST
NOT Current
Overcast
Overcast
 Wind from NE
Wind: NE 8 mph , 13 km/h
Temperature: 21°F , -6°C
Wind Chill: 11°F , -12°C
Dew Point: 19°F , -7°C
Humidity: 93%
Barometer: 30.16 inHg , 1021.3 hPa
Clouds: Overcast
Visibility: 10 miles , 16 km
Cloud details: Overcast 1200 ft
2017/12/17 11:43 KCLI 171143Z AUTO 04007KT 10SM OVC012 M06/M07 A3016 RMK AO2
 
KGRB - Ashwaubenon, Wisconsin, USA
Distance from station: S 63mi, 102km
Updated: Sun, 17-Dec-2017 6:53am CST
Overcast
Overcast
 Wind from ENE
Wind: ENE 7 mph , 11 km/h
Temperature: 28°F , -2°C
Wind Chill: 21°F , -6°C
Dew Point: 25°F , -4°C
Humidity: 86%
Barometer: 30.16 inHg , 1021.3 hPa
Clouds: Overcast
Visibility: 10 miles , 16 km
Cloud details: Overcast 1100 ft
2017/12/17 12:53 KGRB 171253Z 06006KT 10SM OVC011 M02/M04 A3016 RMK AO2 SLP222 T10171044
KEGV - Eagle River, Wisconsin, USA
Distance from station: NW 66mi, 107km
Updated: Sun, 17-Dec-2017 7:35am CST
Overcast
Overcast
 Wind from SSE
Wind: SSE 3 mph , 6 km/h
Temperature: 19°F , -7°C
Dew Point: 18°F , -8°C
Humidity: 93%
Barometer: 30.09 inHg , 1019 hPa
Clouds: Overcast
Visibility: 7 miles , 11 km
Cloud details: Overcast 300 ft
2017/12/17 13:35 KEGV 171335Z AUTO 15003KT 7SM OVC003 M07/M08 A3009 RMK AO2 T10751076
 
KRHI - Rhinelander, Wisconsin, USA
Distance from station: WNW 68mi, 109km
Updated: Sun, 17-Dec-2017 6:53am CST
Overcast
Overcast
 Wind from ESE
Wind: ESE 6 mph , 9 km/h
Temperature: 19°F , -7°C
Wind Chill: 11°F , -12°C
Dew Point: 19°F , -7°C
Humidity: 100%
Barometer: 30.11 inHg , 1019.6 hPa
Clouds: Overcast
Visibility: 8 miles , 13 km
Cloud details: Overcast 300 ft
2017/12/17 12:53 KRHI 171253Z AUTO 11005KT 8SM OVC003 M07/M07 A3011 RMK AO2 SLP226 T10671072
KLNL - Land O Lakes, Wisconsin, USA
Distance from station: NW 74mi, 119km
Updated: Sun, 17-Dec-2017 7:35am CST
Mist, Overcast
Mist, Overcast
 Wind from S
Wind: S 5 mph , 7 km/h
Temperature: 19°F , -7°C
Wind Chill: 12°F , -11°C
Dew Point: 18°F , -8°C
Humidity: 93%
Barometer: 30.11 inHg , 1019.6 hPa
Summary: Mist
Clouds: Overcast
Visibility: 4 miles , 6 km
Cloud details: Overcast 400 ft
2017/12/17 13:35 KLNL 171335Z AUTO 17004KT 4SM BR OVC004 M07/M08 A3011 RMK AO2 T10711078
 
KSAW - Gwinn/Sawyer, Michigan, USA
Distance from station: NNE 74mi, 120km
Updated: Sun, 17-Dec-2017 7:45am CST
Overcast
Overcast
 Wind from S
Wind: S 7 mph , 11 km/h
Temperature: 14°F , -10°C
Wind Chill: 4°F , -16°C
Dew Point: 12°F , -11°C
Humidity: 92%
Barometer: 30.15 inHg , 1021 hPa
Clouds: Overcast
Visibility: 10 miles , 16 km
Cloud details: Overcast 1400 ft
2017/12/17 13:45 KSAW 171345Z 19006KT 10SM OVC014 M10/M11 A3015